createdAt,value
2018-02-16T00:00:30.242Z,1.20
2018-02-16T00:02:57.759Z,1.20
2018-02-16T00:05:25.286Z,1.10
2018-02-16T00:07:52.772Z,0.90
2018-02-16T00:10:21.042Z,1.10
2018-02-16T00:12:49.314Z,1.10
2018-02-16T00:15:17.550Z,1.30
2018-02-16T00:17:45.047Z,1.30
2018-02-16T00:20:13.361Z,1.20
2018-02-16T00:22:40.842Z,1.10
2018-02-16T00:25:08.314Z,1.20
2018-02-16T00:27:35.794Z,0.70
2018-02-16T00:30:04.067Z,0.80
2018-02-16T00:32:32.297Z,1.10
2018-02-16T00:34:59.777Z,1.00
2018-02-16T00:37:27.291Z,1.20
2018-02-16T00:39:54.795Z,1.30
2018-02-16T00:42:22.273Z,1.30
2018-02-16T00:44:50.529Z,1.20
2018-02-16T00:47:18.002Z,1.20
2018-02-16T00:49:46.266Z,1.30
2018-02-16T00:52:14.591Z,1.20
2018-02-16T00:54:42.053Z,1.20
2018-02-16T00:57:09.542Z,1.30
2018-02-16T00:59:37.022Z,1.30
2018-02-16T01:02:04.513Z,1.40
2018-02-16T01:04:31.978Z,1.30
2018-02-16T01:06:59.450Z,1.30
2018-02-16T01:09:26.965Z,1.20
2018-02-16T01:11:55.213Z,1.20
2018-02-16T01:14:22.675Z,1.10
2018-02-16T01:16:50.945Z,0.90
2018-02-16T01:19:21.226Z,0.90
2018-02-16T01:21:48.706Z,0.90
2018-02-16T01:24:16.303Z,0.90
2018-02-16T01:26:44.529Z,0.70
2018-02-16T01:29:11.989Z,0.70
2018-02-16T01:31:39.686Z,0.70
2018-02-16T01:34:07.186Z,0.90
2018-02-16T01:36:34.667Z,1.10
2018-02-16T01:39:02.191Z,1.20
2018-02-16T01:41:29.662Z,1.40
2018-02-16T01:43:57.153Z,1.40
2018-02-16T01:46:24.657Z,1.40
2018-02-16T01:48:52.129Z,1.40
2018-02-16T01:51:19.607Z,1.50
2018-02-16T01:53:47.108Z,1.50
2018-02-16T01:56:15.341Z,1.60
2018-02-16T01:58:42.813Z,1.60
2018-02-16T02:01:10.322Z,1.60
2018-02-16T02:03:37.787Z,1.70
2018-02-16T02:06:05.254Z,1.70
2018-02-16T02:08:32.744Z,1.70
2018-02-16T02:11:00.214Z,1.70
2018-02-16T02:13:28.450Z,1.70
2018-02-16T02:15:55.962Z,1.70
2018-02-16T02:18:24.194Z,1.60
2018-02-16T02:20:51.679Z,1.50
2018-02-16T02:23:19.935Z,1.50
2018-02-16T02:25:48.179Z,1.50
2018-02-16T02:28:15.650Z,1.40
2018-02-16T02:30:43.234Z,1.50
2018-02-16T02:33:10.708Z,1.60
2018-02-16T02:35:38.943Z,1.60
2018-02-16T02:38:06.434Z,1.60
2018-02-16T02:40:34.690Z,1.70
2018-02-16T02:43:02.149Z,1.70
2018-02-16T02:45:30.424Z,1.70
2018-02-16T02:47:57.886Z,1.60
2018-02-16T02:50:26.135Z,1.70
2018-02-16T02:52:53.665Z,1.70
2018-02-16T02:55:21.142Z,1.70
2018-02-16T02:57:48.611Z,1.70
2018-02-16T03:00:16.114Z,1.60
2018-02-16T03:02:43.615Z,1.40
2018-02-16T03:05:11.080Z,1.40
2018-02-16T03:07:40.098Z,1.40
2018-02-16T03:10:08.341Z,1.40
2018-02-16T03:12:35.801Z,1.40
2018-02-16T03:15:03.478Z,1.50
2018-02-16T03:17:31.001Z,1.60
2018-02-16T03:19:58.485Z,1.70
2018-02-16T03:22:26.157Z,1.70
2018-02-16T03:24:53.637Z,1.70
2018-02-16T03:27:21.870Z,1.50
2018-02-16T03:29:49.353Z,1.50
2018-02-16T03:32:17.591Z,1.40
2018-02-16T03:34:45.063Z,1.40
2018-02-16T03:37:12.542Z,1.70
2018-02-16T03:39:40.003Z,1.80
2018-02-16T03:42:08.265Z,1.90
2018-02-16T03:44:36.511Z,1.80
2018-02-16T03:47:03.980Z,1.70
2018-02-16T03:49:32.263Z,1.60
2018-02-16T03:51:59.741Z,1.60
2018-02-16T03:54:27.998Z,1.40
2018-02-16T03:56:55.484Z,1.40
2018-02-16T03:59:23.716Z,1.20
2018-02-16T04:01:51.198Z,1.10
2018-02-16T04:04:18.676Z,1.20
2018-02-16T04:06:46.159Z,1.10
2018-02-16T04:09:13.779Z,1.00
2018-02-16T04:11:42.646Z,1.20
2018-02-16T04:14:10.117Z,1.10
2018-02-16T04:16:38.378Z,1.30
2018-02-16T04:19:05.845Z,1.30
2018-02-16T04:21:33.337Z,1.30
2018-02-16T04:24:00.822Z,1.20
2018-02-16T04:26:28.277Z,1.40
2018-02-16T04:28:55.771Z,1.30
2018-02-16T04:31:23.266Z,1.20
2018-02-16T04:33:50.734Z,1.10
2018-02-16T04:36:18.222Z,1.20
2018-02-16T04:38:45.689Z,1.10
2018-02-16T04:41:13.480Z,1.20
2018-02-16T04:43:41.706Z,1.00
2018-02-16T04:46:09.186Z,1.00
2018-02-16T04:48:37.442Z,1.30
2018-02-16T04:51:04.914Z,1.30
2018-02-16T04:53:32.386Z,1.20
2018-02-16T04:56:00.653Z,1.20
2018-02-16T04:58:28.130Z,1.20
2018-02-16T05:00:56.415Z,1.20
2018-02-16T05:03:23.858Z,1.20
2018-02-16T05:05:52.094Z,1.10
2018-02-16T05:08:19.567Z,1.10
2018-02-16T05:10:47.234Z,1.00
2018-02-16T05:13:14.704Z,1.10
2018-02-16T05:15:42.945Z,1.00
2018-02-16T05:18:10.444Z,0.90
2018-02-16T05:20:38.678Z,0.90
2018-02-16T05:23:07.022Z,0.90
2018-02-16T05:25:34.529Z,0.90
2018-02-16T05:28:02.014Z,1.00
2018-02-16T05:30:29.494Z,1.10
2018-02-16T05:32:57.018Z,1.10
2018-02-16T05:35:25.253Z,1.10
2018-02-16T05:37:52.730Z,1.00
2018-02-16T05:40:20.226Z,0.80
2018-02-16T05:42:47.699Z,0.70
2018-02-16T05:45:15.170Z,0.60
2018-02-16T05:47:42.647Z,0.60
2018-02-16T05:50:10.149Z,0.70
2018-02-16T05:52:37.631Z,0.60
2018-02-16T05:55:05.102Z,0.60
2018-02-16T05:57:32.571Z,0.60
2018-02-16T06:00:00.050Z,0.50
2018-02-16T06:02:27.570Z,0.60
2018-02-16T06:04:55.029Z,0.60
2018-02-16T06:07:22.502Z,0.60
2018-02-16T06:09:50.010Z,0.70
2018-02-16T06:12:18.237Z,0.60
2018-02-16T06:14:45.733Z,0.50
2018-02-16T06:17:13.963Z,0.50
2018-02-16T06:19:41.462Z,0.50
2018-02-16T06:22:08.954Z,0.40
2018-02-16T06:24:36.428Z,0.60
2018-02-16T06:27:03.918Z,0.60
2018-02-16T06:29:32.158Z,0.50
2018-02-16T06:31:59.630Z,0.50
2018-02-16T06:34:27.133Z,0.50
2018-02-16T06:36:54.615Z,0.50
2018-02-16T06:39:22.085Z,0.40
2018-02-16T06:41:49.604Z,0.50
2018-02-16T06:44:17.079Z,0.50
2018-02-16T06:46:44.544Z,0.40
2018-02-16T06:49:12.031Z,0.40
2018-02-16T06:51:39.530Z,0.40
2018-02-16T06:54:06.990Z,0.40
2018-02-16T06:56:34.478Z,0.50
2018-02-16T06:59:01.941Z,0.50
2018-02-16T07:01:29.434Z,0.70
2018-02-16T07:03:57.677Z,0.80
2018-02-16T07:06:25.142Z,0.80
2018-02-16T07:08:52.627Z,0.90
2018-02-16T07:11:20.878Z,1.20
2018-02-16T07:13:48.359Z,1.20
2018-02-16T07:16:16.593Z,1.40
2018-02-16T07:18:44.095Z,1.30
2018-02-16T07:21:11.571Z,1.40
2018-02-16T07:23:39.035Z,1.60
2018-02-16T07:26:06.530Z,1.90
2018-02-16T07:28:34.003Z,2.10
2018-02-16T07:31:01.482Z,2.20
2018-02-16T07:33:29.717Z,2.30
2018-02-16T07:35:57.186Z,2.30
2018-02-16T07:38:24.662Z,2.40
2018-02-16T07:40:52.894Z,2.00
2018-02-16T07:43:20.353Z,2.00
2018-02-16T07:45:47.830Z,2.10
2018-02-16T07:48:15.323Z,2.30
2018-02-16T07:50:42.796Z,2.40
2018-02-16T07:53:10.278Z,2.70
2018-02-16T07:55:37.747Z,2.70
2018-02-16T07:58:05.262Z,2.50
2018-02-16T08:00:32.727Z,2.90
2018-02-16T08:03:00.194Z,3.40
2018-02-16T08:05:27.687Z,3.80
2018-02-16T08:07:55.144Z,3.80
2018-02-16T08:10:22.614Z,3.70
2018-02-16T08:12:50.863Z,4.50
2018-02-16T08:15:19.303Z,4.90
2018-02-16T08:17:46.755Z,4.90
2018-02-16T08:20:14.366Z,4.70
2018-02-16T08:22:41.837Z,4.50
2018-02-16T08:25:10.070Z,4.00
2018-02-16T08:27:37.651Z,4.00
2018-02-16T08:30:05.115Z,4.40
2018-02-16T08:32:32.586Z,5.00
2018-02-16T08:35:00.950Z,5.00
2018-02-16T08:37:28.414Z,5.00
2018-02-16T08:39:55.876Z,5.10
2018-02-16T08:42:24.137Z,5.30
2018-02-16T08:44:51.603Z,5.30
2018-02-16T08:47:19.826Z,5.90
2018-02-16T08:49:47.337Z,5.80
2018-02-16T08:52:14.779Z,5.50
2018-02-16T08:54:42.254Z,5.20
2018-02-16T08:57:10.506Z,5.40
2018-02-16T08:59:38.085Z,5.40
2018-02-16T09:02:06.314Z,6.10
2018-02-16T09:04:34.706Z,6.10
2018-02-16T09:07:03.018Z,6.10
2018-02-16T09:09:30.470Z,6.30
2018-02-16T09:11:58.703Z,6.10
2018-02-16T09:14:26.316Z,6.00
2018-02-16T09:16:54.516Z,5.60
2018-02-16T09:19:21.984Z,5.60
2018-02-16T09:21:49.595Z,5.80
2018-02-16T09:24:19.211Z,6.60
2018-02-16T09:26:48.895Z,6.30
2018-02-16T09:29:18.803Z,6.40
2018-02-16T09:31:46.932Z,6.40
2018-02-16T09:34:14.450Z,6.70
2018-02-16T09:36:43.362Z,6.90
2018-02-16T09:39:12.015Z,6.90
2018-02-16T09:41:39.951Z,7.60
2018-02-16T09:44:07.414Z,8.00
2018-02-16T09:46:34.862Z,8.50
2018-02-16T09:49:02.338Z,8.30
2018-02-16T09:51:29.791Z,8.30
2018-02-16T09:53:57.389Z,8.40
2018-02-16T09:56:25.630Z,8.20
2018-02-16T09:58:53.092Z,8.20
2018-02-16T10:01:20.545Z,8.90
2018-02-16T10:03:48.030Z,8.80
2018-02-16T10:06:16.277Z,9.20
2018-02-16T10:08:46.699Z,9.20
2018-02-16T10:11:14.178Z,10.40
2018-02-16T10:13:42.414Z,11.40
2018-02-16T10:16:09.870Z,11.40
2018-02-16T10:18:37.345Z,11.20
2018-02-16T10:21:04.818Z,12.20
2018-02-16T10:23:32.298Z,12.70
2018-02-16T10:25:59.782Z,11.50
2018-02-16T10:28:27.243Z,12.20
2018-02-16T10:30:54.734Z,12.10
2018-02-16T10:33:22.196Z,12.20
2018-02-16T10:35:49.660Z,11.60
2018-02-16T10:38:17.361Z,11.00
2018-02-16T10:40:44.872Z,9.50
2018-02-16T10:43:12.334Z,9.60
2018-02-16T10:45:40.575Z,10.30
2018-02-16T10:48:08.039Z,10.30
2018-02-16T10:50:35.508Z,12.30
2018-02-16T10:53:02.991Z,12.60
2018-02-16T10:55:31.213Z,12.70
2018-02-16T10:57:58.681Z,12.70
2018-02-16T11:00:31.754Z,12.30
2018-02-16T11:06:00.802Z,13.10
2018-02-16T11:08:33.862Z,13.10
2018-02-16T11:11:01.342Z,13.50
2018-02-16T11:13:28.803Z,14.10
2018-02-16T11:15:56.278Z,14.20
2018-02-16T11:18:24.540Z,14.90
2018-02-16T11:20:52.006Z,14.90
2018-02-16T11:23:19.470Z,15.10
2018-02-16T11:25:47.727Z,13.60
2018-02-16T11:28:15.187Z,13.50
2018-02-16T11:30:42.650Z,13.00
2018-02-16T11:33:10.194Z,11.90
2018-02-16T11:35:37.658Z,12.60
2018-02-16T11:38:05.891Z,12.80
2018-02-16T11:40:33.374Z,12.80
2018-02-16T11:43:00.847Z,12.30
2018-02-16T11:45:29.097Z,11.40
2018-02-16T11:47:56.563Z,11.40
2018-02-16T11:50:24.488Z,10.40
2018-02-16T11:52:51.998Z,11.20
2018-02-16T11:55:19.482Z,12.10
2018-02-16T11:57:47.186Z,12.40
2018-02-16T12:00:14.642Z,11.50
2018-02-16T12:02:42.292Z,11.90
2018-02-16T12:05:09.763Z,11.50
2018-02-16T12:07:37.226Z,11.40
2018-02-16T12:10:04.719Z,11.50
2018-02-16T12:12:32.947Z,12.00
2018-02-16T12:15:00.412Z,12.00
2018-02-16T12:17:27.905Z,11.70
2018-02-16T12:19:56.138Z,10.60
2018-02-16T12:22:23.607Z,10.60
2018-02-16T12:24:51.086Z,11.60
2018-02-16T12:27:19.306Z,12.30
2018-02-16T12:29:46.788Z,12.30
2018-02-16T12:32:14.266Z,12.70
2018-02-16T12:34:41.733Z,13.20
2018-02-16T12:37:10.061Z,13.80
2018-02-16T12:39:37.544Z,13.70
2018-02-16T12:42:05.002Z,14.00
2018-02-16T12:44:32.466Z,13.80
2018-02-16T12:47:00.726Z,13.30
2018-02-16T12:49:28.191Z,14.00
2018-02-16T12:51:56.649Z,13.20
2018-02-16T12:54:24.746Z,11.80
2018-02-16T12:56:52.214Z,12.30
2018-02-16T12:59:20.466Z,13.30
2018-02-16T13:01:47.929Z,13.30
2018-02-16T13:04:18.437Z,13.70
2018-02-16T13:06:46.715Z,13.30
2018-02-16T13:09:14.178Z,13.60
2018-02-16T13:11:41.654Z,13.10
2018-02-16T13:14:09.158Z,13.10
2018-02-16T13:16:36.627Z,12.90
2018-02-16T13:19:04.108Z,13.00
2018-02-16T13:21:31.595Z,12.80
2018-02-16T13:23:59.827Z,11.10
2018-02-16T13:26:27.332Z,11.00
2018-02-16T13:28:55.551Z,10.70
2018-02-16T13:31:23.010Z,10.70
2018-02-16T13:33:50.487Z,11.40
2018-02-16T13:38:51.690Z,11.70
2018-02-16T13:41:19.762Z,10.80
2018-02-16T13:43:47.998Z,12.20
2018-02-16T13:46:15.461Z,12.10
2018-02-16T13:48:42.928Z,12.70
2018-02-16T13:51:10.398Z,12.50
2018-02-16T13:53:38.655Z,11.30
2018-02-16T13:56:06.107Z,11.40
2018-02-16T13:58:33.582Z,10.60
2018-02-16T14:01:01.822Z,9.50
2018-02-16T14:03:29.834Z,9.50
2018-02-16T14:05:57.285Z,9.40
2018-02-16T14:08:25.543Z,9.90
2018-02-16T14:10:53.771Z,10.10
2018-02-16T14:13:21.252Z,10.10
2018-02-16T14:15:48.722Z,10.20
2018-02-16T14:18:16.179Z,10.10
2018-02-16T14:20:43.654Z,9.50
2018-02-16T14:23:11.889Z,9.10
2018-02-16T14:25:39.349Z,9.10
2018-02-16T14:28:06.818Z,9.10
2018-02-16T14:30:34.293Z,9.10
2018-02-16T14:33:02.286Z,8.90
2018-02-16T14:35:30.666Z,8.90
2018-02-16T14:37:58.137Z,9.10
2018-02-16T14:40:25.591Z,9.10
2018-02-16T14:42:53.066Z,8.90
2018-02-16T14:45:20.526Z,8.90
2018-02-16T14:47:48.006Z,8.90
2018-02-16T14:50:15.462Z,8.90
2018-02-16T14:52:42.922Z,8.80
2018-02-16T14:55:10.408Z,8.70
2018-02-16T14:57:38.626Z,8.60
2018-02-16T15:00:08.489Z,8.60
2018-02-16T15:02:36.736Z,8.40
2018-02-16T15:05:04.204Z,8.40
2018-02-16T15:07:32.438Z,8.10
2018-02-16T15:09:59.908Z,8.10
2018-02-16T15:12:27.418Z,8.10
2018-02-16T15:14:55.656Z,8.10
2018-02-16T15:17:23.103Z,8.00
2018-02-16T15:19:50.616Z,8.10
2018-02-16T15:22:18.838Z,8.00
2018-02-16T15:24:46.296Z,8.00
2018-02-16T15:27:13.787Z,8.00
2018-02-16T15:29:42.018Z,7.90
2018-02-16T15:32:09.478Z,7.90
2018-02-16T15:34:36.953Z,7.90
2018-02-16T15:37:04.406Z,7.80
2018-02-16T15:39:31.858Z,7.80
2018-02-16T15:41:59.331Z,7.70
2018-02-16T15:44:27.566Z,7.60
2018-02-16T15:46:55.054Z,7.60
2018-02-16T15:49:22.531Z,7.50
2018-02-16T15:51:50.752Z,7.50
2018-02-16T15:54:18.244Z,7.50
2018-02-16T15:56:46.468Z,7.40
2018-02-16T15:59:13.927Z,7.40
2018-02-16T16:01:41.431Z,7.30
2018-02-16T16:04:08.878Z,7.20
2018-02-16T16:06:36.337Z,7.10
2018-02-16T16:09:03.820Z,7.00
2018-02-16T16:11:32.074Z,6.90
2018-02-16T16:13:59.521Z,6.90
2018-02-16T16:16:27.778Z,6.80
2018-02-16T16:18:55.248Z,6.80
2018-02-16T16:21:22.708Z,6.70
2018-02-16T16:23:50.176Z,6.60
2018-02-16T16:26:18.414Z,6.40
2018-02-16T16:28:45.909Z,6.30
2018-02-16T16:31:14.155Z,6.10
2018-02-16T16:33:41.638Z,6.10
2018-02-16T16:36:09.906Z,5.80
2018-02-16T16:38:37.386Z,5.70
2018-02-16T16:41:05.621Z,5.50
2018-02-16T16:43:33.114Z,5.50
2018-02-16T16:46:01.347Z,5.40
2018-02-16T16:48:28.806Z,5.40
2018-02-16T16:50:56.894Z,5.40
2018-02-16T16:53:24.358Z,5.40
2018-02-16T16:55:52.590Z,5.30
2018-02-16T16:58:20.072Z,5.30
2018-02-16T17:00:47.540Z,5.20
2018-02-16T17:03:15.021Z,4.90
2018-02-16T17:05:43.258Z,4.60
2018-02-16T17:08:10.733Z,4.60
2018-02-16T17:10:38.199Z,4.50
2018-02-16T17:13:06.458Z,4.20
2018-02-16T17:15:33.918Z,4.20
2018-02-16T17:18:02.150Z,4.10
2018-02-16T17:20:29.659Z,4.00
2018-02-16T17:22:57.897Z,4.10
2018-02-16T17:25:26.338Z,4.10
2018-02-16T17:27:53.830Z,4.00
2018-02-16T17:30:21.294Z,3.80
2018-02-16T17:32:48.824Z,3.70
2018-02-16T17:35:17.027Z,3.70
2018-02-16T17:37:45.698Z,3.60
2018-02-16T17:40:13.179Z,3.60
2018-02-16T17:42:40.641Z,3.70
2018-02-16T17:45:08.135Z,3.80
2018-02-16T17:47:35.618Z,3.70
2018-02-16T17:50:03.094Z,3.60
2018-02-16T17:52:30.561Z,3.40
2018-02-16T17:54:58.049Z,3.20
2018-02-16T17:57:26.287Z,2.80
2018-02-16T17:59:54.771Z,2.80
2018-02-16T18:02:22.254Z,2.70
2018-02-16T18:04:50.496Z,2.50
2018-02-16T18:07:17.959Z,2.50
2018-02-16T18:09:45.435Z,2.40
2018-02-16T18:12:13.670Z,2.30
2018-02-16T18:14:41.138Z,2.30
2018-02-16T18:17:08.642Z,2.20
2018-02-16T18:19:36.878Z,2.10
2018-02-16T18:22:04.371Z,2.10
2018-02-16T18:24:32.608Z,1.80
2018-02-16T18:27:00.091Z,1.80
2018-02-16T18:29:28.361Z,1.60
2018-02-16T18:31:55.825Z,1.60
2018-02-16T18:34:24.055Z,1.60
2018-02-16T18:36:51.548Z,1.60
2018-02-16T18:39:20.075Z,1.50
2018-02-16T18:41:47.543Z,1.40
2018-02-16T18:44:15.030Z,1.30
2018-02-16T18:46:42.496Z,1.40
2018-02-16T18:49:09.967Z,1.40
2018-02-16T18:51:38.222Z,1.30
2018-02-16T18:54:05.696Z,1.30
2018-02-16T18:56:33.958Z,1.10
2018-02-16T18:59:01.429Z,1.10
2018-02-16T19:01:29.695Z,1.20
2018-02-16T19:03:57.154Z,1.20
2018-02-16T19:06:24.643Z,1.10
2018-02-16T19:08:52.121Z,1.00
2018-02-16T19:11:19.595Z,0.90
2018-02-16T19:13:47.078Z,0.90
2018-02-16T19:16:14.561Z,0.70
2018-02-16T19:18:42.040Z,0.70
2018-02-16T19:21:09.679Z,0.60
2018-02-16T19:23:37.183Z,0.70
2018-02-16T19:26:04.654Z,0.70
2018-02-16T19:28:32.160Z,0.80
2018-02-16T19:30:59.614Z,0.70
2018-02-16T19:33:27.082Z,0.60
2018-02-16T19:35:54.633Z,0.60
2018-02-16T19:38:22.124Z,0.50
2018-02-16T19:40:49.641Z,0.50
2018-02-16T19:43:17.139Z,0.40
2018-02-16T19:45:44.605Z,0.60
2018-02-16T19:48:12.104Z,0.50
2018-02-16T19:50:39.684Z,0.40
2018-02-16T19:53:07.178Z,0.20
2018-02-16T19:55:34.665Z,0.30
2018-02-16T19:58:02.174Z,0.40
2018-02-16T20:00:29.670Z,0.50
2018-02-16T20:02:57.908Z,0.50
2018-02-16T20:05:25.424Z,0.50
2018-02-16T20:07:52.920Z,0.40
2018-02-16T20:10:20.389Z,0.30
2018-02-16T20:12:47.892Z,0.20
2018-02-16T20:15:15.384Z,0.20
2018-02-16T20:17:43.039Z,0.20
2018-02-16T20:20:10.588Z,0.10
2018-02-16T20:22:38.064Z,0.10
2018-02-16T20:25:05.623Z,0.10
2018-02-16T20:27:33.110Z,0.00
2018-02-16T20:30:00.602Z,-0.10
2018-02-16T20:32:28.080Z,0.00
2018-02-16T20:34:55.580Z,-0.10
2018-02-16T20:37:23.046Z,-0.20
2018-02-16T20:39:51.279Z,-0.40
2018-02-16T20:42:18.770Z,-0.50
2018-02-16T20:44:46.270Z,-0.40
2018-02-16T20:47:13.758Z,-0.40
2018-02-16T20:49:41.237Z,-0.40
2018-02-16T20:52:08.731Z,-0.30
2018-02-16T20:54:36.229Z,-0.30
2018-02-16T20:57:03.717Z,-0.30
2018-02-16T20:59:31.965Z,-0.30
2018-02-16T21:01:59.467Z,-0.30
2018-02-16T21:04:27.706Z,-0.20
2018-02-16T21:06:55.946Z,-0.20
2018-02-16T21:09:23.430Z,-0.20
2018-02-16T21:11:50.922Z,-0.10
2018-02-16T21:14:19.159Z,0.10
2018-02-16T21:16:46.704Z,0.10
2018-02-16T21:19:14.166Z,0.10
2018-02-16T21:21:41.635Z,-0.10
2018-02-16T21:24:09.142Z,-0.20
2018-02-16T21:26:36.616Z,-0.30
2018-02-16T21:29:04.095Z,-0.40
2018-02-16T21:31:31.611Z,-0.40
2018-02-16T21:33:59.137Z,-0.30
2018-02-16T21:36:26.618Z,-0.40
2018-02-16T21:38:54.865Z,-0.70
2018-02-16T21:41:22.346Z,-0.70
2018-02-16T21:43:50.575Z,-0.50
2018-02-16T21:46:18.093Z,-0.50
2018-02-16T21:48:46.310Z,-0.50
2018-02-16T21:51:14.743Z,-0.40
2018-02-16T21:53:42.284Z,-0.50
2018-02-16T21:56:09.715Z,-0.60
2018-02-16T21:58:37.210Z,-0.60
2018-02-16T22:01:05.460Z,-0.60
2018-02-16T22:03:32.942Z,-0.60
2018-02-16T22:06:01.174Z,-0.60
2018-02-16T22:08:28.720Z,-0.60
2018-02-16T22:10:56.220Z,-0.60
2018-02-16T22:13:24.454Z,-0.50
2018-02-16T22:15:51.952Z,-0.50
2018-02-16T22:18:20.181Z,-0.50
2018-02-16T22:20:47.721Z,-0.50
2018-02-16T22:23:15.220Z,-0.50
2018-02-16T22:25:42.690Z,-0.50
2018-02-16T22:28:10.935Z,-0.50
2018-02-16T22:30:38.449Z,-0.50
2018-02-16T22:33:05.940Z,-0.50
2018-02-16T22:35:33.410Z,-0.60
2018-02-16T22:38:00.928Z,-0.60
2018-02-16T22:40:28.497Z,-0.60
2018-02-16T22:42:55.977Z,-0.60
2018-02-16T22:45:23.457Z,-0.60
2018-02-16T22:47:52.451Z,-0.60
2018-02-16T22:50:19.943Z,-0.60
2018-02-16T22:52:47.519Z,-0.60
2018-02-16T22:55:14.987Z,-0.80
2018-02-16T22:57:43.256Z,-0.80
2018-02-16T23:00:10.735Z,-0.90
2018-02-16T23:02:38.210Z,-0.90
2018-02-16T23:05:05.680Z,-1.00
2018-02-16T23:07:33.939Z,-1.00
2018-02-16T23:10:01.408Z,-1.00
2018-02-16T23:12:29.013Z,-0.80
2018-02-16T23:14:56.482Z,-0.80
2018-02-16T23:17:23.947Z,-0.90
2018-02-16T23:19:51.461Z,-0.80
2018-02-16T23:22:18.940Z,-0.90
2018-02-16T23:24:46.465Z,-1.00
2018-02-16T23:27:14.748Z,-0.90
2018-02-16T23:29:42.993Z,-0.90
2018-02-16T23:32:10.508Z,-0.90
2018-02-16T23:34:38.002Z,-1.00
2018-02-16T23:37:05.482Z,-1.10
2018-02-16T23:39:33.750Z,-1.10
2018-02-16T23:42:01.259Z,-1.10
2018-02-16T23:44:28.677Z,-1.10
2018-02-16T23:46:56.168Z,-1.00
2018-02-16T23:49:23.679Z,-0.90
2018-02-16T23:51:51.150Z,-0.90
2018-02-16T23:54:18.618Z,-0.80
2018-02-16T23:56:46.149Z,-0.70
2018-02-16T23:59:13.611Z,-0.70
